sensor_id;sensor_type;location;lat;lon;timestamp;P1;durP1;ratioP1;P2;durP2;ratioP2
72087;SDS011;59961;50.232;8.616;2022-12-15T00:02:12;11.80;;;4.78;;
72087;SDS011;59961;50.232;8.616;2022-12-15T00:04:56;12.88;;;5.15;;
72087;SDS011;59961;50.232;8.616;2022-12-15T00:07:40;10.30;;;4.55;;
72087;SDS011;59961;50.232;8.616;2022-12-15T00:10:24;11.53;;;4.83;;
72087;SDS011;59961;50.232;8.616;2022-12-15T00:13:09;8.80;;;3.47;;
72087;SDS011;59961;50.232;8.616;2022-12-15T00:15:53;12.07;;;4.38;;
72087;SDS011;59961;50.232;8.616;2022-12-15T00:18:37;13.45;;;4.55;;
72087;SDS011;59961;50.232;8.616;2022-12-15T00:21:20;10.55;;;4.05;;
72087;SDS011;59961;50.232;8.616;2022-12-15T00:24:04;12.87;;;4.37;;
72087;SDS011;59961;50.232;8.616;2022-12-15T00:26:48;9.23;;;3.92;;
72087;SDS011;59961;50.232;8.616;2022-12-15T00:29:32;9.82;;;4.30;;
72087;SDS011;59961;50.232;8.616;2022-12-15T00:32:16;10.95;;;4.10;;
72087;SDS011;59961;50.232;8.616;2022-12-15T00:35:00;12.57;;;3.63;;
72087;SDS011;59961;50.232;8.616;2022-12-15T00:37:44;10.10;;;4.03;;
72087;SDS011;59961;50.232;8.616;2022-12-15T00:40:28;10.15;;;4.35;;
72087;SDS011;59961;50.232;8.616;2022-12-15T00:42:53;12.10;;;4.57;;
72087;SDS011;59961;50.232;8.616;2022-12-15T00:45:18;9.05;;;3.78;;
72087;SDS011;59961;50.232;8.616;2022-12-15T00:47:43;9.63;;;3.55;;
72087;SDS011;59961;50.232;8.616;2022-12-15T00:50:08;10.18;;;4.00;;
72087;SDS011;59961;50.232;8.616;2022-12-15T00:52:52;8.98;;;4.20;;
72087;SDS011;59961;50.232;8.616;2022-12-15T00:55:36;10.37;;;3.47;;
72087;SDS011;59961;50.232;8.616;2022-12-15T00:58:20;11.48;;;4.18;;
72087;SDS011;59961;50.232;8.616;2022-12-15T01:01:08;12.15;;;4.10;;
72087;SDS011;59961;50.232;8.616;2022-12-15T01:03:52;8.00;;;3.58;;
72087;SDS011;59961;50.232;8.616;2022-12-15T01:06:35;10.38;;;3.97;;
72087;SDS011;59961;50.232;8.616;2022-12-15T01:09:19;10.73;;;4.20;;
72087;SDS011;59961;50.232;8.616;2022-12-15T01:12:03;7.43;;;3.70;;
72087;SDS011;59961;50.232;8.616;2022-12-15T01:14:47;8.25;;;3.65;;
72087;SDS011;59961;50.232;8.616;2022-12-15T01:17:31;10.82;;;4.20;;
72087;SDS011;59961;50.232;8.616;2022-12-15T01:20:15;9.27;;;4.05;;
72087;SDS011;59961;50.232;8.616;2022-12-15T01:22:50;12.37;;;4.57;;
72087;SDS011;59961;50.232;8.616;2022-12-15T01:25:17;9.55;;;3.72;;
72087;SDS011;59961;50.232;8.616;2022-12-15T01:27:42;13.05;;;4.25;;
72087;SDS011;59961;50.232;8.616;2022-12-15T01:30:08;12.87;;;4.70;;
72087;SDS011;59961;50.232;8.616;2022-12-15T01:32:34;11.27;;;4.45;;
72087;SDS011;59961;50.232;8.616;2022-12-15T01:34:59;10.50;;;4.13;;
72087;SDS011;59961;50.232;8.616;2022-12-15T01:37:25;9.82;;;4.13;;
72087;SDS011;59961;50.232;8.616;2022-12-15T01:39:50;14.13;;;4.57;;
72087;SDS011;59961;50.232;8.616;2022-12-15T01:42:34;8.55;;;3.65;;
72087;SDS011;59961;50.232;8.616;2022-12-15T01:47:42;9.17;;;3.83;;
72087;SDS011;59961;50.232;8.616;2022-12-15T01:50:11;8.43;;;3.60;;
72087;SDS011;59961;50.232;8.616;2022-12-15T01:52:37;13.23;;;4.30;;
72087;SDS011;59961;50.232;8.616;2022-12-15T01:55:02;13.17;;;5.50;;
72087;SDS011;59961;50.232;8.616;2022-12-15T01:57:28;8.83;;;3.77;;
72087;SDS011;59961;50.232;8.616;2022-12-15T01:59:57;10.73;;;4.03;;
72087;SDS011;59961;50.232;8.616;2022-12-15T02:02:24;10.27;;;4.15;;
72087;SDS011;59961;50.232;8.616;2022-12-15T02:04:50;11.27;;;4.25;;
72087;SDS011;59961;50.232;8.616;2022-12-15T02:07:16;11.50;;;3.50;;
72087;SDS011;59961;50.232;8.616;2022-12-15T02:09:42;13.15;;;4.72;;
72087;SDS011;59961;50.232;8.616;2022-12-15T02:17:02;9.80;;;4.28;;
72087;SDS011;59961;50.232;8.616;2022-12-15T02:22:18;11.05;;;4.13;;
72087;SDS011;59961;50.232;8.616;2022-12-15T02:30:12;13.43;;;4.97;;
72087;SDS011;59961;50.232;8.616;2022-12-15T02:32:42;8.93;;;4.63;;
72087;SDS011;59961;50.232;8.616;2022-12-15T02:38:04;10.07;;;4.60;;
72087;SDS011;59961;50.232;8.616;2022-12-15T02:40:31;12.40;;;5.63;;
72087;SDS011;59961;50.232;8.616;2022-12-15T02:42:56;10.90;;;4.70;;
72087;SDS011;59961;50.232;8.616;2022-12-15T02:45:28;11.87;;;5.43;;
72087;SDS011;59961;50.232;8.616;2022-12-15T02:48:03;11.50;;;5.18;;
72087;SDS011;59961;50.232;8.616;2022-12-15T02:50:51;10.07;;;4.88;;
72087;SDS011;59961;50.232;8.616;2022-12-15T02:53:36;10.45;;;5.15;;
72087;SDS011;59961;50.232;8.616;2022-12-15T03:03:51;12.07;;;5.75;;
72087;SDS011;59961;50.232;8.616;2022-12-15T03:06:17;17.07;;;5.47;;
72087;SDS011;59961;50.232;8.616;2022-12-15T03:08:43;11.38;;;4.80;;
72087;SDS011;59961;50.232;8.616;2022-12-15T03:11:08;11.13;;;4.30;;
72087;SDS011;59961;50.232;8.616;2022-12-15T03:13:33;12.18;;;4.20;;
72087;SDS011;59961;50.232;8.616;2022-12-15T03:15:58;16.75;;;4.63;;
72087;SDS011;59961;50.232;8.616;2022-12-15T03:18:24;12.83;;;4.67;;
72087;SDS011;59961;50.232;8.616;2022-12-15T03:20:49;12.43;;;5.07;;
72087;SDS011;59961;50.232;8.616;2022-12-15T03:23:14;11.93;;;4.72;;
72087;SDS011;59961;50.232;8.616;2022-12-15T03:25:39;9.17;;;4.60;;
72087;SDS011;59961;50.232;8.616;2022-12-15T03:28:04;10.40;;;4.07;;
72087;SDS011;59961;50.232;8.616;2022-12-15T03:30:29;9.23;;;4.43;;
72087;SDS011;59961;50.232;8.616;2022-12-15T03:32:55;10.25;;;4.78;;
72087;SDS011;59961;50.232;8.616;2022-12-15T03:35:20;11.20;;;4.43;;
72087;SDS011;59961;50.232;8.616;2022-12-15T03:37:45;8.10;;;3.43;;
72087;SDS011;59961;50.232;8.616;2022-12-15T03:40:10;10.87;;;4.77;;
72087;SDS011;59961;50.232;8.616;2022-12-15T03:42:37;12.48;;;4.28;;
72087;SDS011;59961;50.232;8.616;2022-12-15T03:45:15;12.00;;;4.28;;
72087;SDS011;59961;50.232;8.616;2022-12-15T03:47:42;9.17;;;3.73;;
72087;SDS011;59961;50.232;8.616;2022-12-15T03:50:07;11.52;;;4.70;;
72087;SDS011;59961;50.232;8.616;2022-12-15T03:52:33;8.97;;;4.37;;
72087;SDS011;59961;50.232;8.616;2022-12-15T03:54:58;17.02;;;5.82;;
72087;SDS011;59961;50.232;8.616;2022-12-15T03:57:23;11.43;;;4.30;;
72087;SDS011;59961;50.232;8.616;2022-12-15T03:59:49;11.73;;;4.78;;
72087;SDS011;59961;50.232;8.616;2022-12-15T04:02:14;13.47;;;5.03;;
72087;SDS011;59961;50.232;8.616;2022-12-15T04:04:39;11.27;;;4.90;;
72087;SDS011;59961;50.232;8.616;2022-12-15T04:07:04;15.75;;;4.93;;
72087;SDS011;59961;50.232;8.616;2022-12-15T04:09:29;13.27;;;5.15;;
72087;SDS011;59961;50.232;8.616;2022-12-15T04:11:54;12.53;;;5.20;;
72087;SDS011;59961;50.232;8.616;2022-12-15T04:14:19;13.47;;;4.37;;
72087;SDS011;59961;50.232;8.616;2022-12-15T04:16:45;13.40;;;4.85;;
72087;SDS011;59961;50.232;8.616;2022-12-15T04:19:10;13.87;;;4.73;;
72087;SDS011;59961;50.232;8.616;2022-12-15T04:21:54;13.88;;;5.43;;
72087;SDS011;59961;50.232;8.616;2022-12-15T04:24:19;15.07;;;5.37;;
72087;SDS011;59961;50.232;8.616;2022-12-15T04:27:03;13.60;;;4.78;;
72087;SDS011;59961;50.232;8.616;2022-12-15T04:29:47;11.25;;;4.55;;
72087;SDS011;59961;50.232;8.616;2022-12-15T04:32:31;14.90;;;5.63;;
72087;SDS011;59961;50.232;8.616;2022-12-15T04:35:15;12.30;;;4.20;;
72087;SDS011;59961;50.232;8.616;2022-12-15T04:37:59;11.10;;;5.05;;
72087;SDS011;59961;50.232;8.616;2022-12-15T04:40:43;12.82;;;4.85;;
72087;SDS011;59961;50.232;8.616;2022-12-15T04:43:27;13.77;;;4.88;;
72087;SDS011;59961;50.232;8.616;2022-12-15T04:46:11;10.57;;;4.40;;
72087;SDS011;59961;50.232;8.616;2022-12-15T04:48:55;10.93;;;4.23;;
72087;SDS011;59961;50.232;8.616;2022-12-15T04:51:39;12.65;;;4.25;;
72087;SDS011;59961;50.232;8.616;2022-12-15T04:54:23;10.40;;;4.30;;
72087;SDS011;59961;50.232;8.616;2022-12-15T04:57:07;13.75;;;4.95;;
72087;SDS011;59961;50.232;8.616;2022-12-15T04:59:51;14.60;;;4.07;;
72087;SDS011;59961;50.232;8.616;2022-12-15T05:02:35;10.00;;;4.50;;
72087;SDS011;59961;50.232;8.616;2022-12-15T05:05:19;8.65;;;3.97;;
72087;SDS011;59961;50.232;8.616;2022-12-15T05:08:03;11.63;;;4.55;;
72087;SDS011;59961;50.232;8.616;2022-12-15T05:10:46;13.25;;;5.55;;
72087;SDS011;59961;50.232;8.616;2022-12-15T05:13:30;9.18;;;4.00;;
72087;SDS011;59961;50.232;8.616;2022-12-15T05:16:14;10.30;;;4.27;;
72087;SDS011;59961;50.232;8.616;2022-12-15T05:18:58;8.48;;;4.03;;
72087;SDS011;59961;50.232;8.616;2022-12-15T05:21:42;12.55;;;5.38;;
72087;SDS011;59961;50.232;8.616;2022-12-15T05:24:26;9.15;;;4.03;;
72087;SDS011;59961;50.232;8.616;2022-12-15T05:27:10;12.57;;;4.65;;
72087;SDS011;59961;50.232;8.616;2022-12-15T05:29:54;12.73;;;4.57;;
72087;SDS011;59961;50.232;8.616;2022-12-15T05:32:38;10.75;;;4.22;;
72087;SDS011;59961;50.232;8.616;2022-12-15T05:35:03;10.73;;;4.53;;
72087;SDS011;59961;50.232;8.616;2022-12-15T05:37:28;11.47;;;3.83;;
72087;SDS011;59961;50.232;8.616;2022-12-15T05:39:54;12.23;;;4.68;;
72087;SDS011;59961;50.232;8.616;2022-12-15T05:42:19;10.40;;;4.50;;
72087;SDS011;59961;50.232;8.616;2022-12-15T05:44:44;10.73;;;4.18;;
72087;SDS011;59961;50.232;8.616;2022-12-15T05:47:09;10.03;;;4.30;;
72087;SDS011;59961;50.232;8.616;2022-12-15T05:49:35;10.65;;;4.43;;
72087;SDS011;59961;50.232;8.616;2022-12-15T05:52:00;11.38;;;4.88;;
72087;SDS011;59961;50.232;8.616;2022-12-15T05:54:25;14.65;;;5.10;;
72087;SDS011;59961;50.232;8.616;2022-12-15T05:56:51;12.17;;;5.00;;
72087;SDS011;59961;50.232;8.616;2022-12-15T05:59:16;12.87;;;5.93;;
72087;SDS011;59961;50.232;8.616;2022-12-15T06:01:41;12.10;;;4.73;;
72087;SDS011;59961;50.232;8.616;2022-12-15T06:04:07;15.17;;;5.33;;
72087;SDS011;59961;50.232;8.616;2022-12-15T06:06:32;12.77;;;4.60;;
72087;SDS011;59961;50.232;8.616;2022-12-15T06:08:57;10.20;;;4.73;;
72087;SDS011;59961;50.232;8.616;2022-12-15T06:11:22;11.43;;;4.67;;
72087;SDS011;59961;50.232;8.616;2022-12-15T06:13:47;14.48;;;5.88;;
72087;SDS011;59961;50.232;8.616;2022-12-15T06:16:14;9.97;;;4.80;;
72087;SDS011;59961;50.232;8.616;2022-12-15T06:18:43;13.40;;;5.25;;
72087;SDS011;59961;50.232;8.616;2022-12-15T06:21:09;14.43;;;5.25;;
72087;SDS011;59961;50.232;8.616;2022-12-15T06:23:36;11.50;;;5.03;;
72087;SDS011;59961;50.232;8.616;2022-12-15T06:26:12;15.60;;;5.70;;
72087;SDS011;59961;50.232;8.616;2022-12-15T06:28:38;15.27;;;5.93;;
72087;SDS011;59961;50.232;8.616;2022-12-15T06:31:04;15.13;;;6.47;;
72087;SDS011;59961;50.232;8.616;2022-12-15T06:33:29;12.25;;;5.15;;
72087;SDS011;59961;50.232;8.616;2022-12-15T06:35:54;13.17;;;5.57;;
72087;SDS011;59961;50.232;8.616;2022-12-15T06:38:20;40.40;;;7.68;;
72087;SDS011;59961;50.232;8.616;2022-12-15T06:40:45;12.53;;;5.80;;
72087;SDS011;59961;50.232;8.616;2022-12-15T06:43:10;13.70;;;5.65;;
72087;SDS011;59961;50.232;8.616;2022-12-15T06:45:35;13.80;;;5.67;;
72087;SDS011;59961;50.232;8.616;2022-12-15T06:48:00;17.63;;;6.07;;
72087;SDS011;59961;50.232;8.616;2022-12-15T06:50:26;13.57;;;5.83;;
72087;SDS011;59961;50.232;8.616;2022-12-15T06:52:51;16.73;;;5.83;;
72087;SDS011;59961;50.232;8.616;2022-12-15T06:55:16;13.02;;;6.35;;
72087;SDS011;59961;50.232;8.616;2022-12-15T06:57:41;21.88;;;7.60;;
72087;SDS011;59961;50.232;8.616;2022-12-15T07:00:07;18.70;;;6.37;;
72087;SDS011;59961;50.232;8.616;2022-12-15T07:02:32;20.30;;;7.63;;
72087;SDS011;59961;50.232;8.616;2022-12-15T07:04:58;18.23;;;6.80;;
72087;SDS011;59961;50.232;8.616;2022-12-15T07:07:23;15.50;;;6.10;;
72087;SDS011;59961;50.232;8.616;2022-12-15T07:09:49;16.02;;;6.78;;
72087;SDS011;59961;50.232;8.616;2022-12-15T07:12:14;16.67;;;6.38;;
72087;SDS011;59961;50.232;8.616;2022-12-15T07:14:39;14.23;;;5.82;;
72087;SDS011;59961;50.232;8.616;2022-12-15T07:17:04;14.95;;;5.57;;
72087;SDS011;59961;50.232;8.616;2022-12-15T07:19:29;15.23;;;5.50;;
72087;SDS011;59961;50.232;8.616;2022-12-15T07:21:54;13.77;;;6.33;;
72087;SDS011;59961;50.232;8.616;2022-12-15T07:24:21;15.63;;;6.17;;
72087;SDS011;59961;50.232;8.616;2022-12-15T07:26:46;18.63;;;6.53;;
72087;SDS011;59961;50.232;8.616;2022-12-15T07:29:11;16.63;;;6.35;;
72087;SDS011;59961;50.232;8.616;2022-12-15T07:31:37;16.27;;;6.80;;
72087;SDS011;59961;50.232;8.616;2022-12-15T07:34:02;14.90;;;6.27;;
72087;SDS011;59961;50.232;8.616;2022-12-15T07:36:27;16.93;;;6.07;;
72087;SDS011;59961;50.232;8.616;2022-12-15T07:38:56;18.03;;;6.53;;
72087;SDS011;59961;50.232;8.616;2022-12-15T07:41:21;15.23;;;5.93;;
72087;SDS011;59961;50.232;8.616;2022-12-15T07:43:46;15.35;;;5.95;;
72087;SDS011;59961;50.232;8.616;2022-12-15T07:46:12;14.50;;;6.47;;
72087;SDS011;59961;50.232;8.616;2022-12-15T07:48:37;17.50;;;6.50;;
72087;SDS011;59961;50.232;8.616;2022-12-15T07:51:06;15.87;;;5.67;;
72087;SDS011;59961;50.232;8.616;2022-12-15T07:53:31;16.00;;;5.78;;
72087;SDS011;59961;50.232;8.616;2022-12-15T07:55:57;16.17;;;9.27;;
72087;SDS011;59961;50.232;8.616;2022-12-15T07:58:23;20.48;;;7.28;;
72087;SDS011;59961;50.232;8.616;2022-12-15T08:00:48;16.40;;;6.23;;
72087;SDS011;59961;50.232;8.616;2022-12-15T08:03:13;17.87;;;6.47;;
72087;SDS011;59961;50.232;8.616;2022-12-15T08:05:39;19.40;;;7.20;;
72087;SDS011;59961;50.232;8.616;2022-12-15T08:08:04;13.83;;;5.63;;
72087;SDS011;59961;50.232;8.616;2022-12-15T08:10:29;15.70;;;6.57;;
72087;SDS011;59961;50.232;8.616;2022-12-15T08:12:54;15.30;;;6.60;;
72087;SDS011;59961;50.232;8.616;2022-12-15T08:15:20;13.95;;;5.72;;
72087;SDS011;59961;50.232;8.616;2022-12-15T08:17:45;14.40;;;6.43;;
72087;SDS011;59961;50.232;8.616;2022-12-15T08:20:10;18.07;;;6.77;;
72087;SDS011;59961;50.232;8.616;2022-12-15T08:22:35;19.30;;;7.05;;
72087;SDS011;59961;50.232;8.616;2022-12-15T08:25:00;13.33;;;5.50;;
72087;SDS011;59961;50.232;8.616;2022-12-15T08:27:25;13.35;;;5.53;;
72087;SDS011;59961;50.232;8.616;2022-12-15T08:29:51;16.67;;;5.80;;
72087;SDS011;59961;50.232;8.616;2022-12-15T08:32:16;14.97;;;5.87;;
72087;SDS011;59961;50.232;8.616;2022-12-15T08:34:41;15.63;;;5.73;;
72087;SDS011;59961;50.232;8.616;2022-12-15T08:37:06;15.13;;;6.25;;
72087;SDS011;59961;50.232;8.616;2022-12-15T08:39:31;16.23;;;6.47;;
72087;SDS011;59961;50.232;8.616;2022-12-15T08:41:57;19.33;;;7.10;;
72087;SDS011;59961;50.232;8.616;2022-12-15T08:44:22;16.60;;;6.07;;
72087;SDS011;59961;50.232;8.616;2022-12-15T08:46:47;14.00;;;5.87;;
72087;SDS011;59961;50.232;8.616;2022-12-15T08:49:12;17.03;;;6.70;;
72087;SDS011;59961;50.232;8.616;2022-12-15T08:51:37;19.00;;;6.67;;
72087;SDS011;59961;50.232;8.616;2022-12-15T08:54:02;20.10;;;6.63;;
72087;SDS011;59961;50.232;8.616;2022-12-15T08:56:28;15.73;;;5.87;;
72087;SDS011;59961;50.232;8.616;2022-12-15T08:58:54;18.27;;;6.93;;
72087;SDS011;59961;50.232;8.616;2022-12-15T09:01:20;17.20;;;6.53;;
72087;SDS011;59961;50.232;8.616;2022-12-15T09:03:46;16.95;;;6.45;;
72087;SDS011;59961;50.232;8.616;2022-12-15T09:06:15;17.93;;;6.70;;
72087;SDS011;59961;50.232;8.616;2022-12-15T09:08:41;16.52;;;6.35;;
72087;SDS011;59961;50.232;8.616;2022-12-15T09:11:06;15.80;;;6.20;;
72087;SDS011;59961;50.232;8.616;2022-12-15T09:13:31;17.20;;;5.95;;
72087;SDS011;59961;50.232;8.616;2022-12-15T09:18:25;16.88;;;6.35;;
72087;SDS011;59961;50.232;8.616;2022-12-15T09:20:50;17.43;;;7.07;;
72087;SDS011;59961;50.232;8.616;2022-12-15T09:23:15;16.03;;;6.77;;
72087;SDS011;59961;50.232;8.616;2022-12-15T09:25:40;16.80;;;7.32;;
72087;SDS011;59961;50.232;8.616;2022-12-15T09:28:06;19.87;;;7.03;;
72087;SDS011;59961;50.232;8.616;2022-12-15T09:30:31;15.88;;;6.20;;
72087;SDS011;59961;50.232;8.616;2022-12-15T09:32:56;17.25;;;6.10;;
72087;SDS011;59961;50.232;8.616;2022-12-15T09:35:21;15.63;;;6.75;;
72087;SDS011;59961;50.232;8.616;2022-12-15T09:37:46;15.47;;;6.13;;
72087;SDS011;59961;50.232;8.616;2022-12-15T09:40:12;15.70;;;7.40;;
72087;SDS011;59961;50.232;8.616;2022-12-15T09:42:37;15.33;;;6.50;;
72087;SDS011;59961;50.232;8.616;2022-12-15T09:47:51;18.25;;;6.70;;
72087;SDS011;59961;50.232;8.616;2022-12-15T09:50:18;16.55;;;6.00;;
72087;SDS011;59961;50.232;8.616;2022-12-15T09:52:53;17.02;;;6.72;;
72087;SDS011;59961;50.232;8.616;2022-12-15T09:55:23;16.10;;;6.85;;
72087;SDS011;59961;50.232;8.616;2022-12-15T09:57:53;17.63;;;6.70;;
72087;SDS011;59961;50.232;8.616;2022-12-15T10:00:20;18.05;;;6.50;;
72087;SDS011;59961;50.232;8.616;2022-12-15T10:08:00;17.30;;;6.20;;
72087;SDS011;59961;50.232;8.616;2022-12-15T10:10:30;17.10;;;6.07;;
72087;SDS011;59961;50.232;8.616;2022-12-15T10:12:57;19.60;;;7.87;;
72087;SDS011;59961;50.232;8.616;2022-12-15T10:15:36;16.33;;;6.35;;
72087;SDS011;59961;50.232;8.616;2022-12-15T10:20:31;17.30;;;6.18;;
72087;SDS011;59961;50.232;8.616;2022-12-15T10:23:00;17.77;;;7.00;;
72087;SDS011;59961;50.232;8.616;2022-12-15T10:25:26;20.13;;;7.22;;
72087;SDS011;59961;50.232;8.616;2022-12-15T10:30:34;22.50;;;7.27;;
72087;SDS011;59961;50.232;8.616;2022-12-15T10:33:18;16.60;;;6.68;;
72087;SDS011;59961;50.232;8.616;2022-12-15T10:35:44;22.90;;;8.47;;
72087;SDS011;59961;50.232;8.616;2022-12-15T10:38:52;18.85;;;7.18;;
72087;SDS011;59961;50.232;8.616;2022-12-15T10:41:00;20.25;;;7.95;;
72087;SDS011;59961;50.232;8.616;2022-12-15T10:43:27;17.60;;;6.88;;
72087;SDS011;59961;50.232;8.616;2022-12-15T10:48:30;23.03;;;8.47;;
72087;SDS011;59961;50.232;8.616;2022-12-15T10:51:15;21.47;;;8.57;;
72087;SDS011;59961;50.232;8.616;2022-12-15T10:53:47;19.63;;;7.55;;
72087;SDS011;59961;50.232;8.616;2022-12-15T10:56:21;25.20;;;8.05;;
72087;SDS011;59961;50.232;8.616;2022-12-15T10:58:48;23.95;;;9.15;;
72087;SDS011;59961;50.232;8.616;2022-12-15T11:01:16;21.97;;;7.73;;
72087;SDS011;59961;50.232;8.616;2022-12-15T11:03:41;22.35;;;7.88;;
72087;SDS011;59961;50.232;8.616;2022-12-15T11:06:13;21.70;;;8.43;;
72087;SDS011;59961;50.232;8.616;2022-12-15T11:08:40;24.65;;;8.93;;
72087;SDS011;59961;50.232;8.616;2022-12-15T11:11:08;25.17;;;8.65;;
72087;SDS011;59961;50.232;8.616;2022-12-15T11:14:10;20.30;;;8.63;;
72087;SDS011;59961;50.232;8.616;2022-12-15T11:16:41;23.67;;;9.40;;
72087;SDS011;59961;50.232;8.616;2022-12-15T11:19:10;25.40;;;9.43;;
72087;SDS011;59961;50.232;8.616;2022-12-15T11:21:38;23.42;;;8.50;;
72087;SDS011;59961;50.232;8.616;2022-12-15T11:24:14;25.90;;;8.93;;
72087;SDS011;59961;50.232;8.616;2022-12-15T11:26:45;24.40;;;9.43;;
72087;SDS011;59961;50.232;8.616;2022-12-15T11:31:58;27.05;;;10.20;;
72087;SDS011;59961;50.232;8.616;2022-12-15T11:34:32;20.17;;;8.20;;
72087;SDS011;59961;50.232;8.616;2022-12-15T11:44:36;21.02;;;7.90;;
72087;SDS011;59961;50.232;8.616;2022-12-15T11:47:10;22.23;;;8.27;;
72087;SDS011;59961;50.232;8.616;2022-12-15T12:00:15;21.83;;;9.13;;
72087;SDS011;59961;50.232;8.616;2022-12-15T12:02:44;26.50;;;9.17;;
72087;SDS011;59961;50.232;8.616;2022-12-15T12:10:37;25.00;;;9.27;;
72087;SDS011;59961;50.232;8.616;2022-12-15T12:15:31;21.93;;;8.07;;
72087;SDS011;59961;50.232;8.616;2022-12-15T12:18:01;24.17;;;7.93;;
72087;SDS011;59961;50.232;8.616;2022-12-15T12:23:19;18.57;;;7.80;;
72087;SDS011;59961;50.232;8.616;2022-12-15T12:25:46;21.42;;;8.15;;
72087;SDS011;59961;50.232;8.616;2022-12-15T12:28:15;23.17;;;8.65;;
72087;SDS011;59961;50.232;8.616;2022-12-15T12:30:46;21.95;;;8.10;;
72087;SDS011;59961;50.232;8.616;2022-12-15T12:38:10;24.10;;;9.07;;
72087;SDS011;59961;50.232;8.616;2022-12-15T12:40:54;21.10;;;8.88;;
72087;SDS011;59961;50.232;8.616;2022-12-15T12:43:25;21.05;;;7.88;;
72087;SDS011;59961;50.232;8.616;2022-12-15T12:45:54;17.88;;;8.30;;
72087;SDS011;59961;50.232;8.616;2022-12-15T12:48:23;21.57;;;8.67;;
72087;SDS011;59961;50.232;8.616;2022-12-15T12:50:50;23.38;;;8.20;;
72087;SDS011;59961;50.232;8.616;2022-12-15T12:53:32;21.38;;;8.57;;
72087;SDS011;59961;50.232;8.616;2022-12-15T12:55:58;22.83;;;8.20;;
72087;SDS011;59961;50.232;8.616;2022-12-15T13:01:04;23.23;;;8.80;;
72087;SDS011;59961;50.232;8.616;2022-12-15T13:03:30;19.23;;;7.50;;
72087;SDS011;59961;50.232;8.616;2022-12-15T13:05:55;20.50;;;8.27;;
72087;SDS011;59961;50.232;8.616;2022-12-15T13:08:28;24.23;;;8.03;;
72087;SDS011;59961;50.232;8.616;2022-12-15T13:13:52;17.80;;;6.88;;
72087;SDS011;59961;50.232;8.616;2022-12-15T13:16:19;16.17;;;6.83;;
72087;SDS011;59961;50.232;8.616;2022-12-15T13:19:21;16.90;;;6.57;;
72087;SDS011;59961;50.232;8.616;2022-12-15T13:26:50;13.55;;;4.97;;
72087;SDS011;59961;50.232;8.616;2022-12-15T13:29:17;12.73;;;4.72;;
72087;SDS011;59961;50.232;8.616;2022-12-15T13:31:48;12.82;;;5.47;;
72087;SDS011;59961;50.232;8.616;2022-12-15T13:34:17;16.20;;;5.97;;
72087;SDS011;59961;50.232;8.616;2022-12-15T13:36:44;12.90;;;5.07;;
72087;SDS011;59961;50.232;8.616;2022-12-15T13:41:35;13.57;;;5.18;;
72087;SDS011;59961;50.232;8.616;2022-12-15T13:44:00;13.57;;;5.75;;
72087;SDS011;59961;50.232;8.616;2022-12-15T13:46:33;14.40;;;5.38;;
72087;SDS011;59961;50.232;8.616;2022-12-15T13:49:04;15.93;;;5.78;;
72087;SDS011;59961;50.232;8.616;2022-12-15T13:51:36;12.83;;;4.97;;
72087;SDS011;59961;50.232;8.616;2022-12-15T13:54:13;13.35;;;5.25;;
72087;SDS011;59961;50.232;8.616;2022-12-15T13:56:49;14.15;;;5.30;;
72087;SDS011;59961;50.232;8.616;2022-12-15T13:59:26;12.55;;;4.80;;
72087;SDS011;59961;50.232;8.616;2022-12-15T14:01:53;15.05;;;5.55;;
72087;SDS011;59961;50.232;8.616;2022-12-15T14:04:18;13.27;;;5.17;;
72087;SDS011;59961;50.232;8.616;2022-12-15T14:07:05;10.77;;;4.80;;
72087;SDS011;59961;50.232;8.616;2022-12-15T14:09:30;14.18;;;5.65;;
72087;SDS011;59961;50.232;8.616;2022-12-15T14:11:56;13.88;;;5.85;;
72087;SDS011;59961;50.232;8.616;2022-12-15T14:14:26;13.37;;;5.67;;
72087;SDS011;59961;50.232;8.616;2022-12-15T14:17:00;15.98;;;6.07;;
72087;SDS011;59961;50.232;8.616;2022-12-15T14:19:26;18.40;;;6.72;;
72087;SDS011;59961;50.232;8.616;2022-12-15T14:22:00;14.98;;;6.10;;
72087;SDS011;59961;50.232;8.616;2022-12-15T14:26:50;15.30;;;6.23;;
72087;SDS011;59961;50.232;8.616;2022-12-15T14:29:16;18.15;;;6.47;;
72087;SDS011;59961;50.232;8.616;2022-12-15T14:31:42;15.80;;;6.30;;
72087;SDS011;59961;50.232;8.616;2022-12-15T14:34:14;18.50;;;7.03;;
72087;SDS011;59961;50.232;8.616;2022-12-15T14:36:40;19.23;;;7.68;;
72087;SDS011;59961;50.232;8.616;2022-12-15T14:39:11;20.20;;;8.03;;
72087;SDS011;59961;50.232;8.616;2022-12-15T14:41:42;18.48;;;7.00;;
72087;SDS011;59961;50.232;8.616;2022-12-15T14:46:45;19.52;;;8.10;;
72087;SDS011;59961;50.232;8.616;2022-12-15T14:49:12;20.83;;;9.40;;
72087;SDS011;59961;50.232;8.616;2022-12-15T14:51:40;20.27;;;8.13;;
72087;SDS011;59961;50.232;8.616;2022-12-15T14:54:23;27.50;;;9.25;;
72087;SDS011;59961;50.232;8.616;2022-12-15T14:56:55;18.27;;;8.43;;
72087;SDS011;59961;50.232;8.616;2022-12-15T14:59:20;16.02;;;7.10;;
72087;SDS011;59961;50.232;8.616;2022-12-15T15:01:52;21.30;;;9.20;;
72087;SDS011;59961;50.232;8.616;2022-12-15T15:04:30;22.02;;;8.63;;
72087;SDS011;59961;50.232;8.616;2022-12-15T15:06:59;17.17;;;7.50;;
72087;SDS011;59961;50.232;8.616;2022-12-15T15:12:03;18.75;;;8.15;;
72087;SDS011;59961;50.232;8.616;2022-12-15T15:14:39;18.90;;;8.07;;
72087;SDS011;59961;50.232;8.616;2022-12-15T15:17:07;19.50;;;7.97;;
72087;SDS011;59961;50.232;8.616;2022-12-15T15:19:57;21.17;;;9.00;;
72087;SDS011;59961;50.232;8.616;2022-12-15T15:22:24;21.15;;;8.77;;
72087;SDS011;59961;50.232;8.616;2022-12-15T15:24:51;23.48;;;9.43;;
72087;SDS011;59961;50.232;8.616;2022-12-15T15:27:21;20.07;;;8.57;;
72087;SDS011;59961;50.232;8.616;2022-12-15T15:29:47;21.52;;;9.02;;
72087;SDS011;59961;50.232;8.616;2022-12-15T15:32:14;20.83;;;8.93;;
72087;SDS011;59961;50.232;8.616;2022-12-15T15:34:39;18.70;;;7.78;;
72087;SDS011;59961;50.232;8.616;2022-12-15T15:37:07;21.33;;;8.50;;
72087;SDS011;59961;50.232;8.616;2022-12-15T15:39:36;22.10;;;10.10;;
72087;SDS011;59961;50.232;8.616;2022-12-15T15:42:09;24.80;;;10.65;;
72087;SDS011;59961;50.232;8.616;2022-12-15T15:44:35;24.43;;;9.77;;
72087;SDS011;59961;50.232;8.616;2022-12-15T15:47:00;21.58;;;9.00;;
72087;SDS011;59961;50.232;8.616;2022-12-15T15:49:25;24.17;;;9.00;;
72087;SDS011;59961;50.232;8.616;2022-12-15T15:51:51;22.02;;;9.02;;
72087;SDS011;59961;50.232;8.616;2022-12-15T15:54:20;20.97;;;8.63;;
72087;SDS011;59961;50.232;8.616;2022-12-15T15:56:46;23.67;;;9.30;;
72087;SDS011;59961;50.232;8.616;2022-12-15T15:59:12;17.88;;;7.57;;
72087;SDS011;59961;50.232;8.616;2022-12-15T16:01:37;19.23;;;8.23;;
72087;SDS011;59961;50.232;8.616;2022-12-15T16:04:02;21.47;;;8.40;;
72087;SDS011;59961;50.232;8.616;2022-12-15T16:06:27;21.17;;;9.00;;
72087;SDS011;59961;50.232;8.616;2022-12-15T16:08:53;26.00;;;10.13;;
72087;SDS011;59961;50.232;8.616;2022-12-15T16:11:19;21.80;;;7.30;;
72087;SDS011;59961;50.232;8.616;2022-12-15T16:13:45;19.13;;;6.47;;
72087;SDS011;59961;50.232;8.616;2022-12-15T16:16:20;17.83;;;7.77;;
72087;SDS011;59961;50.232;8.616;2022-12-15T16:18:46;16.80;;;6.90;;
72087;SDS011;59961;50.232;8.616;2022-12-15T16:21:12;17.43;;;6.83;;
72087;SDS011;59961;50.232;8.616;2022-12-15T16:23:41;18.65;;;6.57;;
72087;SDS011;59961;50.232;8.616;2022-12-15T16:26:09;17.75;;;5.75;;
72087;SDS011;59961;50.232;8.616;2022-12-15T16:28:37;13.48;;;5.32;;
72087;SDS011;59961;50.232;8.616;2022-12-15T16:31:02;16.63;;;5.68;;
72087;SDS011;59961;50.232;8.616;2022-12-15T16:33:27;14.70;;;5.47;;
72087;SDS011;59961;50.232;8.616;2022-12-15T16:35:52;13.30;;;5.23;;